Terminal Aerodrome Forecast
Issued by NWS

Home | Current Version | Previous Version | Text Only | Print | Product List | Glossary On
Versions: 1 2 3 4 5 6 7 8 9 10 11 12 13 14 15 16 17
000
FTUS43 KDVN 142300
TAFCID
TAF
KCID 142320Z 1500/1524 20006KT P6SM SCT050 BKN120 PROB30 1509/1512
      -SHRA BKN050
     FM151200 18005KT 4SM -RA BR BKN025 OVC050
     FM151700 34012KT P6SM OVC025
      TEMPO 1517/1519 -SHRA
     FM152000 35012KT P6SM SCT030=

USA.gov is the U.S. government's official web portal to all federal, state and local government web resources and services.